Liberty Promise — WWMZ — position and weather

sailwx.info

Track history (hours):
 
Tides and Currents Weather Stations Pressure Air Temp Water Temp Dewpoint Dewpoint Depression Visibility Wind Speed Wind Dir Waves Ship Positions

Liberty Promise

Owner: LIBERTY PROMISE CORPORATION, LAKE SUCCESS, NY. More information available from US FCC via Universal Licensing System and Coast Guard Vessel Documentation Center.

Last reported at 2015-Jul-23 06:34 UTC. Time now 2015-Aug-03 17:14 UTC.
Position N 29°28' E 032°36'.
Warning: this ship's position is 11 days out of date.

Length 200 m; draft 8.9 m.

Type: Cargo ship. MMSI: 366102000.

Date/timePositionNaut miles runAvg speedWind from/ knotsBaromVisibWave heightAir tempDewpointWater temp
2015-Jul-23 06:34N 29°28' E 032°36'5611.1
2015-Jul-23 01:31N 30°23' E 032°22'1010.2
2015-Jul-23 00:31N 30°33' E 032°19'7 7.8
2015-Jul-22 23:33N 30°40' E 032°20'1010.0
2015-Jul-22 22:33N 30°50' E 032°19'1110.7
2015-Jul-22 21:33N 31°01' E 032°19'10 9.9
2015-Jul-22 20:33N 31°10' E 032°18'8 7.9
2015-Jul-22 19:33N 31°18' E 032°21'4 3.6
2015-Jul-22 18:33N 31°21' E 032°20'0 0.1
2015-Jul-22 17:33N 31°21' E 032°20'0 0.0
2015-Jul-22 16:30N 31°21' E 032°20'0 0.0
2015-Jul-22 11:15N 31°21' E 032°20'0 0.0
2015-Jul-22 10:33N 31°21' E 032°20'6 0.7
2015-Jul-22 02:34N 31°27' E 032°21'4812.0
2015-Jul-21 22:33N 32°06' E 032°55'1515.0
2015-Jul-21 21:33N 32°17' E 033°06'1514.8
2015-Jul-21 20:33N 32°28' E 033°18'1514.8
2015-Jul-21 19:32N 32°39' E 033°30'1614.6
2015-Jul-21 18:27N 32°51' E 033°42'1314.6
2015-Jul-21 17:33N 32°60' E 033°54'1514.7
2015-Jul-21 16:33N 33°11' E 034°06'1515.1
2015-Jul-21 15:33N 33°20' E 034°20'1615.7
2015-Jul-21 14:33N 33°30' E 034°35'1615.9
2015-Jul-21 13:34N 33°40' E 034°49'1615.9
2015-Jul-21 12:33N 33°51' E 035°04'23 1.3
2015-Jul-20 19:05N 33°54' E 035°31'1 2.1
2015-Jul-20 18:33N 33°55' E 035°32'6 5.8
2015-Jul-20 17:34N 33°55' E 035°25'2115.8
2015-Jul-20 16:14N 33°50' E 035°01'1116.6
2015-Jul-20 15:34N 33°45' E 034°49'1716.6
2015-Jul-20 14:33N 33°38' E 034°30'1717.1
2015-Jul-20 13:33N 33°31' E 034°12'1717.2
2015-Jul-20 12:33N 33°23' E 033°53'1717.3
2015-Jul-20 11:34N 33°15' E 033°35'1717.2
2015-Jul-20 10:33N 33°08' E 033°17'1717.1
2015-Jul-20 09:33N 32°60' E 032°59'1717.3
2015-Jul-20 08:33N 32°52' E 032°40'1717.4
2015-Jul-20 07:33N 32°44' E 032°22'1717.3
2015-Jul-20 06:33N 32°37' E 032°03'1717.1
2015-Jul-20 05:33N 32°29' E 031°45'1716.9
2015-Jul-20 04:33N 32°21' E 031°27'2416.8
2015-Jul-20 03:07N 32°10' E 031°02'916.6
2015-Jul-20 02:33N 32°06' E 030°52'1916.7
2015-Jul-20 01:24N 31°57' E 030°32'1416.9
2015-Jul-20 00:33N 31°49' E 030°18'2216.8
2015-Jul-19 23:14N 31°34' E 029°59'1117.0
2015-Jul-19 22:33N 31°25' E 029°50'1515.0
2015-Jul-19 21:33N 31°10' E 029°48'4 0.4
2015-Jul-19 10:19N 31°11' E 029°53'13 1.2
2015-Jul-18 23:16N 31°16' E 029°39'1115.5
2015-Jul-18 22:33N 31°20' E 029°27'1716.7
2015-Jul-18 21:33N 31°25' E 029°08'5016.5
2015-Jul-18 18:31N 31°45' E 028°14'1616.6
2015-Jul-18 17:32N 31°51' E 027°56'5216.4
2015-Jul-18 14:24N 32°11' E 027°00'1816.7
2015-Jul-18 13:18N 32°18' E 026°40'36116.4
2015-Jul-17 15:16N 34°35' E 020°00'1216.7
2015-Jul-17 14:33N 34°40' E 019°47'1616.6
2015-Jul-17 13:33N 34°46' E 019°28'1816.5
2015-Jul-17 12:28N 34°53' E 019°08'1516.5
2015-Jul-17 11:33N 34°58' E 018°51'1916.3
2015-Jul-17 10:23N 35°06' E 018°30'1416.4
2015-Jul-17 09:33N 35°11' E 018°14'1716.4
2015-Jul-17 08:32N 35°18' E 017°55'3316.7
2015-Jul-17 06:33N 35°30' E 017°18'1716.5
2015-Jul-17 05:33N 35°36' E 016°59'1716.6
2015-Jul-17 04:33N 35°43' E 016°40'1616.5
2015-Jul-17 03:33N 35°49' E 016°21'1616.5
2015-Jul-17 02:33N 35°55' E 016°03'1616.4
2015-Jul-17 01:33N 36°02' E 015°44'1616.5
2015-Jul-17 00:34N 36°08' E 015°25'1716.8
2015-Jul-16 23:33N 36°14' E 015°06'1717.0
2015-Jul-16 22:33N 36°21' E 014°46'1717.0
2015-Jul-16 21:33N 36°28' E 014°27'1716.5
2015-Jul-16 20:33N 36°36' E 014°09'1716.8
2015-Jul-16 19:33N 36°45' E 013°51'1717.1
2015-Jul-16 18:33N 36°54' E 013°33'1717.0
2015-Jul-16 17:33N 37°02' E 013°15'1616.5
2015-Jul-16 16:33N 37°11' E 012°57'1616.2
2015-Jul-16 15:33N 37°19' E 012°39'1916.3
2015-Jul-16 14:22N 37°28' E 012°18'1416.6
2015-Jul-16 13:33N 37°35' E 012°03'1716.6
2015-Jul-16 12:33N 37°44' E 011°45'1615.6
2015-Jul-16 11:33N 37°57' E 011°35'1616.5
2015-Jul-16 10:33N 38°13' E 011°30'1616.3
2015-Jul-16 09:33N 38°29' E 011°24'14716.2
2015-Jul-16 00:30N 40°50' E 010°31'1616.8
2015-Jul-15 23:34N 41°05' E 010°25'1916.1
2015-Jul-15 22:24N 41°23' E 010°18'1315.6
2015-Jul-15 21:33N 41°36' E 010°13'1615.6
2015-Jul-15 20:33N 41°51' E 010°07'1515.2
2015-Jul-15 19:33N 42°05' E 010°02'1414.5
2015-Jul-15 18:33N 42°19' E 009°56'1514.5
2015-Jul-15 17:33N 42°33' E 009°51'1514.6
2015-Jul-15 16:33N 42°47' E 009°55'1514.6
2015-Jul-15 15:33N 43°01' E 010°02'1515.0
2015-Jul-15 14:33N 43°16' E 010°07'1514.8
2015-Jul-15 13:32N 43°30' E 010°13'6 5.5
2015-Jul-15 12:30N 43°35' E 010°18'0 0.0
2015-Jul-15 11:18N 43°35' E 010°18'0 0.0
2015-Jul-15 09:09N 43°35' E 010°18'0 0.0
2015-Jul-15 05:33N 43°35' E 010°18'0 0.0
2015-Jul-15 04:32N 43°35' E 010°18'0 0.0
2015-Jul-15 03:32N 43°35' E 010°18'0 0.0
2015-Jul-15 02:32N 43°35' E 010°18'0 0.0
2015-Jul-15 01:32N 43°35' E 010°18'0 0.0
2015-Jul-15 00:32N 43°35' E 010°18'0 0.0
2015-Jul-14 23:32N 43°35' E 010°18'0 0.0
2015-Jul-14 22:32N 43°35' E 010°18'0 0.0
2015-Jul-14 21:32N 43°35' E 010°18'0 0.0
2015-Jul-14 20:32N 43°35' E 010°18'0 0.0
2015-Jul-14 19:32N 43°35' E 010°18'0 0.0
2015-Jul-14 18:32N 43°35' E 010°18'0 0.0
2015-Jul-14 17:32N 43°35' E 010°18'0 0.0
2015-Jul-14 16:32N 43°35' E 010°18'0 0.0
2015-Jul-14 15:32N 43°35' E 010°18'0 0.0
2015-Jul-14 14:32N 43°35' E 010°18'0 0.0
2015-Jul-14 13:32N 43°35' E 010°18'0 0.0
2015-Jul-14 12:32N 43°35' E 010°18'3 2.7
2015-Jul-14 11:33N 43°32' E 010°17'5 5.2
2015-Jul-14 10:33N 43°28' E 010°12'10 9.9
2015-Jul-14 09:33N 43°21' E 010°03'1413.7
2015-Jul-14 08:34N 43°15' E 009°46'1818.0
2015-Jul-14 07:34N 43°09' E 009°23'1818.1
2015-Jul-14 06:33N 43°03' E 008°60'1918.5
2015-Jul-14 05:33N 42°54' E 008°38'1918.3
2015-Jul-14 04:31N 42°43' E 008°16'1818.4
2015-Jul-14 03:33N 42°34' E 007°56'1818.3
2015-Jul-14 02:33N 42°23' E 007°36'1818.2
2015-Jul-14 01:33N 42°13' E 007°15'1918.6
2015-Jul-14 00:34N 42°02' E 006°54'1818.4
2015-Jul-13 23:33N 41°52' E 006°34'1818.3
2015-Jul-13 22:34N 41°42' E 006°13'1818.2
2015-Jul-13 21:34N 41°32' E 005°53'1817.9
2015-Jul-13 20:34N 41°23' E 005°33'1818.2
2015-Jul-13 19:33N 41°12' E 005°12'11218.4
2015-Jul-13 13:25N 40°10' E 003°09'1517.2
2015-Jul-13 12:33N 40°02' E 002°52'1717.3
2015-Jul-13 11:33N 39°52' E 002°34'1615.8
2015-Jul-13 10:33N 39°44' E 002°17'1515.3
2015-Jul-13 09:33N 39°35' E 002°00'1615.7
2015-Jul-13 08:33N 39°25' E 001°45'1615.8
2015-Jul-13 07:33N 39°15' E 001°29'  
Track history (hours):
 
Tides and Currents Weather Stations Pressure Air Temp Water Temp Dewpoint Dewpoint Depression Visibility Wind Speed Wind Dir Waves Ship Positions

Liberty Promise

Owner: LIBERTY PROMISE CORPORATION, LAKE SUCCESS, NY. More information available from US FCC via Universal Licensing System and Coast Guard Vessel Documentation Center.

Last reported at 2015-Jul-23 06:34 UTC. Time now 2015-Aug-03 17:14 UTC.
Position N 29°28' E 032°36'.
Warning: this ship's position is 11 days out of date.

Length 200 m; draft 8.9 m.

Type: Cargo ship. MMSI: 366102000.

Date/timePositionNaut miles runAvg speedWind from/ knotsBaromVisibWave heightAir tempDewpointWater temp
2015-Jul-23 06:34N 29°28' E 032°36'5611.1
2015-Jul-23 01:31N 30°23' E 032°22'1010.2
2015-Jul-23 00:31N 30°33' E 032°19'7 7.8
2015-Jul-22 23:33N 30°40' E 032°20'1010.0
2015-Jul-22 22:33N 30°50' E 032°19'1110.7
2015-Jul-22 21:33N 31°01' E 032°19'10 9.9
2015-Jul-22 20:33N 31°10' E 032°18'8 7.9
2015-Jul-22 19:33N 31°18' E 032°21'4 3.6
2015-Jul-22 18:33N 31°21' E 032°20'0 0.1
2015-Jul-22 17:33N 31°21' E 032°20'0 0.0
2015-Jul-22 16:30N 31°21' E 032°20'0 0.0
2015-Jul-22 11:15N 31°21' E 032°20'0 0.0
2015-Jul-22 10:33N 31°21' E 032°20'6 0.7
2015-Jul-22 02:34N 31°27' E 032°21'4812.0
2015-Jul-21 22:33N 32°06' E 032°55'1515.0
2015-Jul-21 21:33N 32°17' E 033°06'1514.8
2015-Jul-21 20:33N 32°28' E 033°18'1514.8
2015-Jul-21 19:32N 32°39' E 033°30'1614.6
2015-Jul-21 18:27N 32°51' E 033°42'1314.6
2015-Jul-21 17:33N 32°60' E 033°54'1514.7
2015-Jul-21 16:33N 33°11' E 034°06'1515.1
2015-Jul-21 15:33N 33°20' E 034°20'1615.7
2015-Jul-21 14:33N 33°30' E 034°35'1615.9
2015-Jul-21 13:34N 33°40' E 034°49'1615.9
2015-Jul-21 12:33N 33°51' E 035°04'23 1.3
2015-Jul-20 19:05N 33°54' E 035°31'1 2.1
2015-Jul-20 18:33N 33°55' E 035°32'6 5.8
2015-Jul-20 17:34N 33°55' E 035°25'2115.8
2015-Jul-20 16:14N 33°50' E 035°01'1116.6
2015-Jul-20 15:34N 33°45' E 034°49'1716.6
2015-Jul-20 14:33N 33°38' E 034°30'1717.1
2015-Jul-20 13:33N 33°31' E 034°12'1717.2
2015-Jul-20 12:33N 33°23' E 033°53'1717.3
2015-Jul-20 11:34N 33°15' E 033°35'1717.2
2015-Jul-20 10:33N 33°08' E 033°17'1717.1
2015-Jul-20 09:33N 32°60' E 032°59'1717.3
2015-Jul-20 08:33N 32°52' E 032°40'1717.4
2015-Jul-20 07:33N 32°44' E 032°22'1717.3
2015-Jul-20 06:33N 32°37' E 032°03'1717.1
2015-Jul-20 05:33N 32°29' E 031°45'1716.9
2015-Jul-20 04:33N 32°21' E 031°27'2416.8
2015-Jul-20 03:07N 32°10' E 031°02'916.6
2015-Jul-20 02:33N 32°06' E 030°52'1916.7
2015-Jul-20 01:24N 31°57' E 030°32'1416.9
2015-Jul-20 00:33N 31°49' E 030°18'2216.8
2015-Jul-19 23:14N 31°34' E 029°59'1117.0
2015-Jul-19 22:33N 31°25' E 029°50'1515.0
2015-Jul-19 21:33N 31°10' E 029°48'4 0.4
2015-Jul-19 10:19N 31°11' E 029°53'13 1.2
2015-Jul-18 23:16N 31°16' E 029°39'1115.5
2015-Jul-18 22:33N 31°20' E 029°27'1716.7
2015-Jul-18 21:33N 31°25' E 029°08'5016.5
2015-Jul-18 18:31N 31°45' E 028°14'1616.6
2015-Jul-18 17:32N 31°51' E 027°56'5216.4
2015-Jul-18 14:24N 32°11' E 027°00'1816.7
2015-Jul-18 13:18N 32°18' E 026°40'36116.4
2015-Jul-17 15:16N 34°35' E 020°00'1216.7
2015-Jul-17 14:33N 34°40' E 019°47'1616.6
2015-Jul-17 13:33N 34°46' E 019°28'1816.5
2015-Jul-17 12:28N 34°53' E 019°08'1516.5
2015-Jul-17 11:33N 34°58' E 018°51'1916.3
2015-Jul-17 10:23N 35°06' E 018°30'1416.4
2015-Jul-17 09:33N 35°11' E 018°14'1716.4
2015-Jul-17 08:32N 35°18' E 017°55'3316.7
2015-Jul-17 06:33N 35°30' E 017°18'1716.5
2015-Jul-17 05:33N 35°36' E 016°59'1716.6
2015-Jul-17 04:33N 35°43' E 016°40'1616.5
2015-Jul-17 03:33N 35°49' E 016°21'1616.5
2015-Jul-17 02:33N 35°55' E 016°03'1616.4
2015-Jul-17 01:33N 36°02' E 015°44'1616.5
2015-Jul-17 00:34N 36°08' E 015°25'1716.8
2015-Jul-16 23:33N 36°14' E 015°06'1717.0
2015-Jul-16 22:33N 36°21' E 014°46'1717.0
2015-Jul-16 21:33N 36°28' E 014°27'1716.5
2015-Jul-16 20:33N 36°36' E 014°09'1716.8
2015-Jul-16 19:33N 36°45' E 013°51'1717.1
2015-Jul-16 18:33N 36°54' E 013°33'1717.0
2015-Jul-16 17:33N 37°02' E 013°15'1616.5
2015-Jul-16 16:33N 37°11' E 012°57'1616.2
2015-Jul-16 15:33N 37°19' E 012°39'1916.3
2015-Jul-16 14:22N 37°28' E 012°18'1416.6
2015-Jul-16 13:33N 37°35' E 012°03'1716.6
2015-Jul-16 12:33N 37°44' E 011°45'1615.6
2015-Jul-16 11:33N 37°57' E 011°35'1616.5
2015-Jul-16 10:33N 38°13' E 011°30'1616.3
2015-Jul-16 09:33N 38°29' E 011°24'14716.2
2015-Jul-16 00:30N 40°50' E 010°31'1616.8
2015-Jul-15 23:34N 41°05' E 010°25'1916.1
2015-Jul-15 22:24N 41°23' E 010°18'1315.6
2015-Jul-15 21:33N 41°36' E 010°13'1615.6
2015-Jul-15 20:33N 41°51' E 010°07'1515.2
2015-Jul-15 19:33N 42°05' E 010°02'1414.5
2015-Jul-15 18:33N 42°19' E 009°56'1514.5
2015-Jul-15 17:33N 42°33' E 009°51'1514.6
2015-Jul-15 16:33N 42°47' E 009°55'1514.6
2015-Jul-15 15:33N 43°01' E 010°02'1515.0
2015-Jul-15 14:33N 43°16' E 010°07'1514.8
2015-Jul-15 13:32N 43°30' E 010°13'6 5.5
2015-Jul-15 12:30N 43°35' E 010°18'0 0.0
2015-Jul-15 11:18N 43°35' E 010°18'0 0.0
2015-Jul-15 09:09N 43°35' E 010°18'0 0.0
2015-Jul-15 05:33N 43°35' E 010°18'0 0.0
2015-Jul-15 04:32N 43°35' E 010°18'0 0.0
2015-Jul-15 03:32N 43°35' E 010°18'0 0.0
2015-Jul-15 02:32N 43°35' E 010°18'0 0.0
2015-Jul-15 01:32N 43°35' E 010°18'0 0.0
2015-Jul-15 00:32N 43°35' E 010°18'0 0.0
2015-Jul-14 23:32N 43°35' E 010°18'0 0.0
2015-Jul-14 22:32N 43°35' E 010°18'0 0.0
2015-Jul-14 21:32N 43°35' E 010°18'0 0.0
2015-Jul-14 20:32N 43°35' E 010°18'0 0.0
2015-Jul-14 19:32N 43°35' E 010°18'0 0.0
2015-Jul-14 18:32N 43°35' E 010°18'0 0.0
2015-Jul-14 17:32N 43°35' E 010°18'0 0.0
2015-Jul-14 16:32N 43°35' E 010°18'0 0.0
2015-Jul-14 15:32N 43°35' E 010°18'0 0.0
2015-Jul-14 14:32N 43°35' E 010°18'0 0.0
2015-Jul-14 13:32N 43°35' E 010°18'0 0.0
2015-Jul-14 12:32N 43°35' E 010°18'3 2.7
2015-Jul-14 11:33N 43°32' E 010°17'5 5.2
2015-Jul-14 10:33N 43°28' E 010°12'10 9.9
2015-Jul-14 09:33N 43°21' E 010°03'1413.7
2015-Jul-14 08:34N 43°15' E 009°46'1818.0
2015-Jul-14 07:34N 43°09' E 009°23'1818.1
2015-Jul-14 06:33N 43°03' E 008°60'1918.5
2015-Jul-14 05:33N 42°54' E 008°38'1918.3
2015-Jul-14 04:31N 42°43' E 008°16'1818.4
2015-Jul-14 03:33N 42°34' E 007°56'1818.3
2015-Jul-14 02:33N 42°23' E 007°36'1818.2
2015-Jul-14 01:33N 42°13' E 007°15'1918.6
2015-Jul-14 00:34N 42°02' E 006°54'1818.4
2015-Jul-13 23:33N 41°52' E 006°34'1818.3
2015-Jul-13 22:34N 41°42' E 006°13'1818.2
2015-Jul-13 21:34N 41°32' E 005°53'1817.9
2015-Jul-13 20:34N 41°23' E 005°33'1818.2
2015-Jul-13 19:33N 41°12' E 005°12'11218.4
2015-Jul-13 13:25N 40°10' E 003°09'1517.2
2015-Jul-13 12:33N 40°02' E 002°52'1717.3
2015-Jul-13 11:33N 39°52' E 002°34'1615.8
2015-Jul-13 10:33N 39°44' E 002°17'1515.3
2015-Jul-13 09:33N 39°35' E 002°00'1615.7
2015-Jul-13 08:33N 39°25' E 001°45'1615.8
2015-Jul-13 07:33N 39°15' E 001°29'  

Dump ship's entire track history